sensor_id;sensor_type;location;lat;lon;timestamp;P1;durP1;ratioP1;P2;durP2;ratioP2
8584;SDS011;7180;52.742;11.420;2023-01-15T00:02:03;9.80;;;9.30;;
8584;SDS011;7180;52.742;11.420;2023-01-15T00:04:28;10.03;;;9.57;;
8584;SDS011;7180;52.742;11.420;2023-01-15T00:06:54;9.80;;;9.30;;
8584;SDS011;7180;52.742;11.420;2023-01-15T00:09:19;9.47;;;9.07;;
8584;SDS011;7180;52.742;11.420;2023-01-15T00:11:44;9.40;;;9.00;;
8584;SDS011;7180;52.742;11.420;2023-01-15T00:14:09;9.33;;;8.93;;
8584;SDS011;7180;52.742;11.420;2023-01-15T00:16:36;9.57;;;9.17;;
8584;SDS011;7180;52.742;11.420;2023-01-15T00:19:04;9.40;;;9.00;;
8584;SDS011;7180;52.742;11.420;2023-01-15T00:21:32;10.07;;;9.57;;
8584;SDS011;7180;52.742;11.420;2023-01-15T00:23:57;9.50;;;9.10;;
8584;SDS011;7180;52.742;11.420;2023-01-15T00:26:41;9.30;;;8.90;;
8584;SDS011;7180;52.742;11.420;2023-01-15T00:29:25;9.23;;;8.83;;
8584;SDS011;7180;52.742;11.420;2023-01-15T00:31:58;9.40;;;9.00;;
8584;SDS011;7180;52.742;11.420;2023-01-15T00:34:25;9.57;;;9.17;;
8584;SDS011;7180;52.742;11.420;2023-01-15T00:36:52;10.20;;;9.70;;
8584;SDS011;7180;52.742;11.420;2023-01-15T00:39:17;9.40;;;9.00;;
8584;SDS011;7180;52.742;11.420;2023-01-15T00:41:43;9.30;;;8.90;;
8584;SDS011;7180;52.742;11.420;2023-01-15T00:44:08;9.30;;;8.80;;
8584;SDS011;7180;52.742;11.420;2023-01-15T00:46:33;9.40;;;9.00;;
8584;SDS011;7180;52.742;11.420;2023-01-15T00:48:59;9.13;;;8.73;;
8584;SDS011;7180;52.742;11.420;2023-01-15T00:51:24;9.70;;;9.30;;
8584;SDS011;7180;52.742;11.420;2023-01-15T00:53:49;10.50;;;10.00;;
8584;SDS011;7180;52.742;11.420;2023-01-15T00:56:14;9.90;;;9.40;;
8584;SDS011;7180;52.742;11.420;2023-01-15T00:58:40;9.57;;;9.17;;
8584;SDS011;7180;52.742;11.420;2023-01-15T01:01:05;9.47;;;9.07;;
8584;SDS011;7180;52.742;11.420;2023-01-15T01:03:30;9.83;;;9.33;;
8584;SDS011;7180;52.742;11.420;2023-01-15T01:06:02;9.63;;;9.17;;
8584;SDS011;7180;52.742;11.420;2023-01-15T01:08:28;9.90;;;9.50;;
8584;SDS011;7180;52.742;11.420;2023-01-15T01:11:27;10.60;;;10.10;;
8584;SDS011;7180;52.742;11.420;2023-01-15T01:13:48;9.43;;;9.03;;
8584;SDS011;7180;52.742;11.420;2023-01-15T01:18:57;9.60;;;9.10;;
8584;SDS011;7180;52.742;11.420;2023-01-15T01:21:24;9.40;;;9.00;;
8584;SDS011;7180;52.742;11.420;2023-01-15T01:23:50;8.77;;;8.37;;
8584;SDS011;7180;52.742;11.420;2023-01-15T01:26:16;8.50;;;8.20;;
8584;SDS011;7180;52.742;11.420;2023-01-15T01:28:41;9.13;;;8.63;;
8584;SDS011;7180;52.742;11.420;2023-01-15T01:31:07;9.10;;;8.60;;
8584;SDS011;7180;52.742;11.420;2023-01-15T01:33:33;8.63;;;8.23;;
8584;SDS011;7180;52.742;11.420;2023-01-15T01:35:58;8.53;;;8.10;;
8584;SDS011;7180;52.742;11.420;2023-01-15T01:38:23;8.20;;;7.80;;
8584;SDS011;7180;52.742;11.420;2023-01-15T01:40:49;8.00;;;7.60;;
8584;SDS011;7180;52.742;11.420;2023-01-15T01:43:24;7.47;;;7.07;;
8584;SDS011;7180;52.742;11.420;2023-01-15T01:45:51;7.50;;;7.20;;
8584;SDS011;7180;52.742;11.420;2023-01-15T01:48:17;8.00;;;7.60;;
8584;SDS011;7180;52.742;11.420;2023-01-15T01:50:48;7.87;;;7.57;;
8584;SDS011;7180;52.742;11.420;2023-01-15T01:53:22;7.60;;;7.20;;
8584;SDS011;7180;52.742;11.420;2023-01-15T01:55:50;7.50;;;7.20;;
8584;SDS011;7180;52.742;11.420;2023-01-15T01:58:16;7.90;;;7.50;;
8584;SDS011;7180;52.742;11.420;2023-01-15T02:00:44;7.50;;;7.20;;
8584;SDS011;7180;52.742;11.420;2023-01-15T02:03:12;7.23;;;6.93;;
8584;SDS011;7180;52.742;11.420;2023-01-15T02:05:38;7.40;;;7.00;;
8584;SDS011;7180;52.742;11.420;2023-01-15T02:08:07;7.20;;;6.80;;
8584;SDS011;7180;52.742;11.420;2023-01-15T02:10:33;8.10;;;7.70;;
8584;SDS011;7180;52.742;11.420;2023-01-15T02:15:31;7.10;;;6.80;;
8584;SDS011;7180;52.742;11.420;2023-01-15T02:29:43;7.23;;;6.93;;
8584;SDS011;7180;52.742;11.420;2023-01-15T02:32:31;8.30;;;7.70;;
8584;SDS011;7180;52.742;11.420;2023-01-15T02:35:04;8.03;;;7.63;;
8584;SDS011;7180;52.742;11.420;2023-01-15T02:37:36;7.90;;;7.40;;
8584;SDS011;7180;52.742;11.420;2023-01-15T02:40:06;6.93;;;6.63;;
8584;SDS011;7180;52.742;11.420;2023-01-15T02:42:34;7.23;;;6.90;;
8584;SDS011;7180;52.742;11.420;2023-01-15T02:45:01;7.13;;;6.80;;
8584;SDS011;7180;52.742;11.420;2023-01-15T02:47:30;7.20;;;6.90;;
8584;SDS011;7180;52.742;11.420;2023-01-15T02:50:00;7.30;;;7.00;;
8584;SDS011;7180;52.742;11.420;2023-01-15T02:52:37;7.30;;;6.97;;
8584;SDS011;7180;52.742;11.420;2023-01-15T02:55:10;8.20;;;7.80;;
8584;SDS011;7180;52.742;11.420;2023-01-15T02:57:41;8.80;;;8.20;;
8584;SDS011;7180;52.742;11.420;2023-01-15T03:00:11;8.60;;;8.10;;
8584;SDS011;7180;52.742;11.420;2023-01-15T03:05:53;7.90;;;7.50;;
8584;SDS011;7180;52.742;11.420;2023-01-15T03:08:28;7.40;;;7.10;;
8584;SDS011;7180;52.742;11.420;2023-01-15T03:11:07;7.60;;;7.10;;
8584;SDS011;7180;52.742;11.420;2023-01-15T03:16:35;6.87;;;6.53;;
8584;SDS011;7180;52.742;11.420;2023-01-15T03:19:23;8.10;;;7.70;;
8584;SDS011;7180;52.742;11.420;2023-01-15T03:22:02;8.47;;;8.07;;
8584;SDS011;7180;52.742;11.420;2023-01-15T03:24:31;8.23;;;7.83;;
8584;SDS011;7180;52.742;11.420;2023-01-15T03:27:03;8.30;;;7.90;;
8584;SDS011;7180;52.742;11.420;2023-01-15T03:29:29;7.83;;;7.43;;
8584;SDS011;7180;52.742;11.420;2023-01-15T03:31:58;8.17;;;7.67;;
8584;SDS011;7180;52.742;11.420;2023-01-15T03:34:25;8.27;;;7.80;;
8584;SDS011;7180;52.742;11.420;2023-01-15T03:36:57;8.10;;;7.70;;
8584;SDS011;7180;52.742;11.420;2023-01-15T03:39:22;8.00;;;7.40;;
8584;SDS011;7180;52.742;11.420;2023-01-15T03:42:07;8.40;;;8.00;;
8584;SDS011;7180;52.742;11.420;2023-01-15T03:47:36;8.43;;;8.03;;
8584;SDS011;7180;52.742;11.420;2023-01-15T03:50:33;8.30;;;7.70;;
8584;SDS011;7180;52.742;11.420;2023-01-15T03:53:14;7.87;;;7.57;;
8584;SDS011;7180;52.742;11.420;2023-01-15T03:55:54;7.90;;;7.50;;
8584;SDS011;7180;52.742;11.420;2023-01-15T03:58:38;8.00;;;7.60;;
8584;SDS011;7180;52.742;11.420;2023-01-15T04:01:08;7.97;;;7.63;;
8584;SDS011;7180;52.742;11.420;2023-01-15T04:03:37;8.40;;;8.00;;
8584;SDS011;7180;52.742;11.420;2023-01-15T04:06:03;9.33;;;8.93;;
8584;SDS011;7180;52.742;11.420;2023-01-15T04:08:30;9.00;;;8.50;;
8584;SDS011;7180;52.742;11.420;2023-01-15T04:10:59;7.97;;;7.60;;
8584;SDS011;7180;52.742;11.420;2023-01-15T04:13:26;8.53;;;8.03;;
8584;SDS011;7180;52.742;11.420;2023-01-15T04:15:52;8.40;;;8.00;;
8584;SDS011;7180;52.742;11.420;2023-01-15T04:18:18;8.60;;;8.00;;
8584;SDS011;7180;52.742;11.420;2023-01-15T04:20:44;8.20;;;7.80;;
8584;SDS011;7180;52.742;11.420;2023-01-15T04:23:09;8.47;;;8.00;;
8584;SDS011;7180;52.742;11.420;2023-01-15T04:25:34;8.10;;;7.80;;
8584;SDS011;7180;52.742;11.420;2023-01-15T04:27:59;8.40;;;7.90;;
8584;SDS011;7180;52.742;11.420;2023-01-15T04:30:25;8.63;;;8.13;;
8584;SDS011;7180;52.742;11.420;2023-01-15T04:32:50;8.30;;;7.90;;
8584;SDS011;7180;52.742;11.420;2023-01-15T04:35:17;8.27;;;7.80;;
8584;SDS011;7180;52.742;11.420;2023-01-15T04:37:44;8.10;;;7.70;;
8584;SDS011;7180;52.742;11.420;2023-01-15T04:40:10;8.80;;;8.40;;
8584;SDS011;7180;52.742;11.420;2023-01-15T04:42:56;9.53;;;9.03;;
8584;SDS011;7180;52.742;11.420;2023-01-15T04:45:41;8.23;;;7.80;;
8584;SDS011;7180;52.742;11.420;2023-01-15T04:48:07;8.47;;;7.90;;
8584;SDS011;7180;52.742;11.420;2023-01-15T04:50:32;8.40;;;8.00;;
8584;SDS011;7180;52.742;11.420;2023-01-15T04:52:58;8.63;;;8.23;;
8584;SDS011;7180;52.742;11.420;2023-01-15T04:55:23;8.73;;;8.30;;
8584;SDS011;7180;52.742;11.420;2023-01-15T04:57:48;8.90;;;8.50;;
8584;SDS011;7180;52.742;11.420;2023-01-15T05:00:14;9.10;;;8.60;;
8584;SDS011;7180;52.742;11.420;2023-01-15T05:02:40;9.10;;;8.50;;
8584;SDS011;7180;52.742;11.420;2023-01-15T05:05:05;9.03;;;8.43;;
8584;SDS011;7180;52.742;11.420;2023-01-15T05:07:31;9.10;;;8.60;;
8584;SDS011;7180;52.742;11.420;2023-01-15T05:09:56;7.90;;;7.53;;
8584;SDS011;7180;52.742;11.420;2023-01-15T05:12:21;8.53;;;8.03;;
8584;SDS011;7180;52.742;11.420;2023-01-15T05:14:46;8.50;;;8.00;;
8584;SDS011;7180;52.742;11.420;2023-01-15T05:17:12;8.77;;;8.37;;
8584;SDS011;7180;52.742;11.420;2023-01-15T05:19:37;9.17;;;8.77;;
8584;SDS011;7180;52.742;11.420;2023-01-15T05:22:03;9.13;;;8.73;;
8584;SDS011;7180;52.742;11.420;2023-01-15T05:24:28;8.10;;;7.80;;
8584;SDS011;7180;52.742;11.420;2023-01-15T05:26:53;8.00;;;7.70;;
8584;SDS011;7180;52.742;11.420;2023-01-15T05:29:19;7.67;;;7.37;;
8584;SDS011;7180;52.742;11.420;2023-01-15T05:31:44;8.50;;;8.03;;
8584;SDS011;7180;52.742;11.420;2023-01-15T05:34:10;8.63;;;8.23;;
8584;SDS011;7180;52.742;11.420;2023-01-15T05:36:35;8.53;;;8.03;;
8584;SDS011;7180;52.742;11.420;2023-01-15T05:39:01;8.53;;;8.13;;
8584;SDS011;7180;52.742;11.420;2023-01-15T05:41:27;9.20;;;8.70;;
8584;SDS011;7180;52.742;11.420;2023-01-15T05:44:11;9.10;;;8.60;;
8584;SDS011;7180;52.742;11.420;2023-01-15T05:46:38;8.83;;;8.40;;
8584;SDS011;7180;52.742;11.420;2023-01-15T05:49:05;8.50;;;8.10;;
8584;SDS011;7180;52.742;11.420;2023-01-15T05:51:33;8.60;;;8.20;;
8584;SDS011;7180;52.742;11.420;2023-01-15T05:53:59;8.80;;;8.13;;
8584;SDS011;7180;52.742;11.420;2023-01-15T05:56:25;8.60;;;8.10;;
8584;SDS011;7180;52.742;11.420;2023-01-15T05:58:50;8.40;;;7.90;;
8584;SDS011;7180;52.742;11.420;2023-01-15T06:01:16;9.13;;;8.50;;
8584;SDS011;7180;52.742;11.420;2023-01-15T06:03:41;9.37;;;8.87;;
8584;SDS011;7180;52.742;11.420;2023-01-15T06:06:09;9.13;;;8.60;;
8584;SDS011;7180;52.742;11.420;2023-01-15T06:08:37;9.30;;;8.80;;
8584;SDS011;7180;52.742;11.420;2023-01-15T06:11:02;8.60;;;8.20;;
8584;SDS011;7180;52.742;11.420;2023-01-15T06:13:28;8.90;;;8.23;;
8584;SDS011;7180;52.742;11.420;2023-01-15T06:15:53;8.43;;;7.90;;
8584;SDS011;7180;52.742;11.420;2023-01-15T06:18:18;8.63;;;8.17;;
8584;SDS011;7180;52.742;11.420;2023-01-15T06:20:44;9.93;;;9.33;;
8584;SDS011;7180;52.742;11.420;2023-01-15T06:23:09;10.17;;;9.40;;
8584;SDS011;7180;52.742;11.420;2023-01-15T06:25:35;9.33;;;8.83;;
8584;SDS011;7180;52.742;11.420;2023-01-15T06:28:04;8.90;;;8.50;;
8584;SDS011;7180;52.742;11.420;2023-01-15T06:30:31;8.90;;;8.40;;
8584;SDS011;7180;52.742;11.420;2023-01-15T06:32:57;8.80;;;8.33;;
8584;SDS011;7180;52.742;11.420;2023-01-15T06:35:22;8.50;;;8.10;;
8584;SDS011;7180;52.742;11.420;2023-01-15T06:37:48;9.07;;;8.60;;
8584;SDS011;7180;52.742;11.420;2023-01-15T06:40:14;8.73;;;8.23;;
8584;SDS011;7180;52.742;11.420;2023-01-15T06:42:39;8.90;;;8.40;;
8584;SDS011;7180;52.742;11.420;2023-01-15T06:45:23;9.53;;;9.13;;
8584;SDS011;7180;52.742;11.420;2023-01-15T06:48:07;9.17;;;8.67;;
8584;SDS011;7180;52.742;11.420;2023-01-15T06:50:32;9.73;;;9.13;;
8584;SDS011;7180;52.742;11.420;2023-01-15T06:52:57;9.30;;;8.80;;
8584;SDS011;7180;52.742;11.420;2023-01-15T06:55:22;9.10;;;8.60;;
8584;SDS011;7180;52.742;11.420;2023-01-15T06:57:48;9.53;;;9.07;;
8584;SDS011;7180;52.742;11.420;2023-01-15T07:00:13;8.90;;;8.47;;
8584;SDS011;7180;52.742;11.420;2023-01-15T07:02:39;9.20;;;8.70;;
8584;SDS011;7180;52.742;11.420;2023-01-15T07:05:05;9.00;;;8.60;;
8584;SDS011;7180;52.742;11.420;2023-01-15T07:07:31;8.80;;;8.30;;
8584;SDS011;7180;52.742;11.420;2023-01-15T07:09:56;9.50;;;9.03;;
8584;SDS011;7180;52.742;11.420;2023-01-15T07:12:22;10.00;;;9.40;;
8584;SDS011;7180;52.742;11.420;2023-01-15T07:14:47;9.60;;;9.00;;
8584;SDS011;7180;52.742;11.420;2023-01-15T07:17:13;9.10;;;8.60;;
8584;SDS011;7180;52.742;11.420;2023-01-15T07:19:39;9.43;;;8.87;;
8584;SDS011;7180;52.742;11.420;2023-01-15T07:22:04;9.10;;;8.70;;
8584;SDS011;7180;52.742;11.420;2023-01-15T07:24:31;8.70;;;8.30;;
8584;SDS011;7180;52.742;11.420;2023-01-15T07:26:56;9.23;;;8.83;;
8584;SDS011;7180;52.742;11.420;2023-01-15T07:29:21;10.27;;;9.70;;
8584;SDS011;7180;52.742;11.420;2023-01-15T07:31:47;9.90;;;9.40;;
8584;SDS011;7180;52.742;11.420;2023-01-15T07:34:13;9.80;;;9.30;;
8584;SDS011;7180;52.742;11.420;2023-01-15T07:36:38;9.50;;;9.00;;
8584;SDS011;7180;52.742;11.420;2023-01-15T07:39:04;9.27;;;8.73;;
8584;SDS011;7180;52.742;11.420;2023-01-15T07:41:31;9.00;;;8.50;;
8584;SDS011;7180;52.742;11.420;2023-01-15T07:44:15;9.33;;;8.77;;
8584;SDS011;7180;52.742;11.420;2023-01-15T07:46:59;9.20;;;8.70;;
8584;SDS011;7180;52.742;11.420;2023-01-15T07:49:43;8.93;;;8.43;;
8584;SDS011;7180;52.742;11.420;2023-01-15T07:52:17;9.10;;;8.40;;
8584;SDS011;7180;52.742;11.420;2023-01-15T07:54:44;9.60;;;8.70;;
8584;SDS011;7180;52.742;11.420;2023-01-15T07:57:11;9.40;;;8.90;;
8584;SDS011;7180;52.742;11.420;2023-01-15T07:59:38;9.03;;;8.53;;
8584;SDS011;7180;52.742;11.420;2023-01-15T08:02:04;9.37;;;8.83;;
8584;SDS011;7180;52.742;11.420;2023-01-15T08:04:30;9.37;;;8.73;;
8584;SDS011;7180;52.742;11.420;2023-01-15T08:06:55;8.70;;;8.20;;
8584;SDS011;7180;52.742;11.420;2023-01-15T08:09:23;8.60;;;8.10;;
8584;SDS011;7180;52.742;11.420;2023-01-15T08:11:49;9.03;;;8.53;;
8584;SDS011;7180;52.742;11.420;2023-01-15T08:14:34;9.43;;;8.83;;
8584;SDS011;7180;52.742;11.420;2023-01-15T08:17:18;9.00;;;8.60;;
8584;SDS011;7180;52.742;11.420;2023-01-15T08:19:43;9.10;;;8.43;;
8584;SDS011;7180;52.742;11.420;2023-01-15T08:22:09;8.90;;;8.40;;
8584;SDS011;7180;52.742;11.420;2023-01-15T08:24:35;8.80;;;8.10;;
8584;SDS011;7180;52.742;11.420;2023-01-15T08:27:00;9.13;;;8.43;;
8584;SDS011;7180;52.742;11.420;2023-01-15T08:29:26;9.03;;;8.40;;
8584;SDS011;7180;52.742;11.420;2023-01-15T08:31:51;9.43;;;8.77;;
8584;SDS011;7180;52.742;11.420;2023-01-15T08:34:16;9.20;;;8.60;;
8584;SDS011;7180;52.742;11.420;2023-01-15T08:36:43;9.37;;;8.67;;
8584;SDS011;7180;52.742;11.420;2023-01-15T08:39:08;10.50;;;9.60;;
8584;SDS011;7180;52.742;11.420;2023-01-15T08:41:33;10.53;;;9.73;;
8584;SDS011;7180;52.742;11.420;2023-01-15T08:43:59;10.20;;;9.20;;
8584;SDS011;7180;52.742;11.420;2023-01-15T08:46:25;11.20;;;9.93;;
8584;SDS011;7180;52.742;11.420;2023-01-15T08:48:50;9.10;;;8.50;;
8584;SDS011;7180;52.742;11.420;2023-01-15T08:51:17;9.30;;;8.50;;
8584;SDS011;7180;52.742;11.420;2023-01-15T08:53:43;9.20;;;8.60;;
8584;SDS011;7180;52.742;11.420;2023-01-15T08:56:12;9.03;;;8.53;;
8584;SDS011;7180;52.742;11.420;2023-01-15T08:58:39;8.73;;;8.20;;
8584;SDS011;7180;52.742;11.420;2023-01-15T09:01:05;9.17;;;8.47;;
8584;SDS011;7180;52.742;11.420;2023-01-15T09:03:32;8.90;;;8.27;;
8584;SDS011;7180;52.742;11.420;2023-01-15T09:05:58;8.53;;;7.87;;
8584;SDS011;7180;52.742;11.420;2023-01-15T09:08:25;8.63;;;8.17;;
8584;SDS011;7180;52.742;11.420;2023-01-15T09:10:50;8.80;;;8.30;;
8584;SDS011;7180;52.742;11.420;2023-01-15T09:13:15;9.63;;;8.70;;
8584;SDS011;7180;52.742;11.420;2023-01-15T09:15:41;9.07;;;8.47;;
8584;SDS011;7180;52.742;11.420;2023-01-15T09:18:06;8.73;;;8.13;;
8584;SDS011;7180;52.742;11.420;2023-01-15T09:20:34;8.67;;;8.17;;
8584;SDS011;7180;52.742;11.420;2023-01-15T09:22:59;8.57;;;8.07;;
8584;SDS011;7180;52.742;11.420;2023-01-15T09:25:25;8.47;;;7.93;;
8584;SDS011;7180;52.742;11.420;2023-01-15T09:27:50;9.07;;;8.40;;
8584;SDS011;7180;52.742;11.420;2023-01-15T09:30:19;9.20;;;8.50;;
8584;SDS011;7180;52.742;11.420;2023-01-15T09:32:45;8.33;;;7.87;;
8584;SDS011;7180;52.742;11.420;2023-01-15T09:35:11;9.13;;;8.20;;
8584;SDS011;7180;52.742;11.420;2023-01-15T09:37:36;8.77;;;8.17;;
8584;SDS011;7180;52.742;11.420;2023-01-15T09:40:02;8.57;;;8.07;;
8584;SDS011;7180;52.742;11.420;2023-01-15T09:42:44;8.53;;;8.03;;
8584;SDS011;7180;52.742;11.420;2023-01-15T09:56:11;7.83;;;7.43;;
8584;SDS011;7180;52.742;11.420;2023-01-15T09:58:43;8.87;;;8.27;;
8584;SDS011;7180;52.742;11.420;2023-01-15T10:01:11;9.10;;;8.40;;
8584;SDS011;7180;52.742;11.420;2023-01-15T10:03:42;8.63;;;8.03;;
8584;SDS011;7180;52.742;11.420;2023-01-15T10:06:19;8.60;;;8.03;;
8584;SDS011;7180;52.742;11.420;2023-01-15T10:08:48;9.20;;;8.50;;
8584;SDS011;7180;52.742;11.420;2023-01-15T10:16:17;8.67;;;8.10;;
8584;SDS011;7180;52.742;11.420;2023-01-15T10:18:46;8.90;;;8.10;;
8584;SDS011;7180;52.742;11.420;2023-01-15T10:21:18;8.27;;;7.77;;
8584;SDS011;7180;52.742;11.420;2023-01-15T10:24:01;9.40;;;8.70;;
8584;SDS011;7180;52.742;11.420;2023-01-15T10:26:42;8.53;;;7.83;;
8584;SDS011;7180;52.742;11.420;2023-01-15T10:29:18;8.80;;;8.27;;
8584;SDS011;7180;52.742;11.420;2023-01-15T10:31:55;8.80;;;8.30;;
8584;SDS011;7180;52.742;11.420;2023-01-15T10:34:27;9.07;;;8.47;;
8584;SDS011;7180;52.742;11.420;2023-01-15T10:37:16;8.57;;;8.07;;
8584;SDS011;7180;52.742;11.420;2023-01-15T10:45:26;9.33;;;8.73;;
8584;SDS011;7180;52.742;11.420;2023-01-15T10:48:09;9.23;;;8.73;;
8584;SDS011;7180;52.742;11.420;2023-01-15T10:50:40;8.60;;;8.10;;
8584;SDS011;7180;52.742;11.420;2023-01-15T10:53:10;8.30;;;7.70;;
8584;SDS011;7180;52.742;11.420;2023-01-15T10:55:42;8.07;;;7.50;;
8584;SDS011;7180;52.742;11.420;2023-01-15T10:58:24;8.30;;;7.70;;
8584;SDS011;7180;52.742;11.420;2023-01-15T11:00:59;8.13;;;7.47;;
8584;SDS011;7180;52.742;11.420;2023-01-15T11:03:46;9.13;;;8.33;;
8584;SDS011;7180;52.742;11.420;2023-01-15T11:06:13;8.43;;;7.77;;
8584;SDS011;7180;52.742;11.420;2023-01-15T11:08:42;8.47;;;7.90;;
8584;SDS011;7180;52.742;11.420;2023-01-15T11:14:34;9.53;;;8.73;;
8584;SDS011;7180;52.742;11.420;2023-01-15T11:17:21;9.50;;;8.83;;
8584;SDS011;7180;52.742;11.420;2023-01-15T11:22:56;8.67;;;8.17;;
8584;SDS011;7180;52.742;11.420;2023-01-15T11:25:30;8.87;;;8.33;;
8584;SDS011;7180;52.742;11.420;2023-01-15T11:27:57;8.07;;;7.57;;
8584;SDS011;7180;52.742;11.420;2023-01-15T11:30:26;7.67;;;7.27;;
8584;SDS011;7180;52.742;11.420;2023-01-15T11:33:04;7.50;;;7.00;;
8584;SDS011;7180;52.742;11.420;2023-01-15T11:35:32;8.17;;;7.57;;
8584;SDS011;7180;52.742;11.420;2023-01-15T11:38:05;8.30;;;7.80;;
8584;SDS011;7180;52.742;11.420;2023-01-15T11:40:38;8.53;;;7.97;;
8584;SDS011;7180;52.742;11.420;2023-01-15T11:43:16;8.33;;;7.60;;
8584;SDS011;7180;52.742;11.420;2023-01-15T11:46:02;8.87;;;8.30;;
8584;SDS011;7180;52.742;11.420;2023-01-15T11:48:46;8.10;;;7.67;;
8584;SDS011;7180;52.742;11.420;2023-01-15T11:51:33;8.57;;;7.97;;
8584;SDS011;7180;52.742;11.420;2023-01-15T11:54:07;7.67;;;7.27;;
8584;SDS011;7180;52.742;11.420;2023-01-15T11:56:36;8.50;;;7.80;;
8584;SDS011;7180;52.742;11.420;2023-01-15T11:59:08;8.10;;;7.50;;
8584;SDS011;7180;52.742;11.420;2023-01-15T12:01:36;7.47;;;6.87;;
8584;SDS011;7180;52.742;11.420;2023-01-15T12:04:26;7.97;;;7.53;;
8584;SDS011;7180;52.742;11.420;2023-01-15T12:06:53;7.50;;;7.00;;
8584;SDS011;7180;52.742;11.420;2023-01-15T12:09:35;8.27;;;7.77;;
8584;SDS011;7180;52.742;11.420;2023-01-15T12:29:05;8.00;;;7.43;;
8584;SDS011;7180;52.742;11.420;2023-01-15T12:34:18;8.30;;;7.80;;
8584;SDS011;7180;52.742;11.420;2023-01-15T12:36:54;9.30;;;8.40;;
8584;SDS011;7180;52.742;11.420;2023-01-15T12:39:35;8.40;;;7.90;;
8584;SDS011;7180;52.742;11.420;2023-01-15T12:42:10;8.63;;;8.13;;
8584;SDS011;7180;52.742;11.420;2023-01-15T12:45:05;8.03;;;7.47;;
8584;SDS011;7180;52.742;11.420;2023-01-15T12:47:50;8.03;;;7.53;;
8584;SDS011;7180;52.742;11.420;2023-01-15T12:50:27;7.90;;;7.40;;
8584;SDS011;7180;52.742;11.420;2023-01-15T12:55:59;8.07;;;7.50;;
8584;SDS011;7180;52.742;11.420;2023-01-15T13:01:36;7.90;;;7.40;;
8584;SDS011;7180;52.742;11.420;2023-01-15T13:04:22;7.50;;;7.10;;
8584;SDS011;7180;52.742;11.420;2023-01-15T13:06:57;7.90;;;7.40;;
8584;SDS011;7180;52.742;11.420;2023-01-15T13:12:13;7.97;;;7.47;;
8584;SDS011;7180;52.742;11.420;2023-01-15T13:14:39;7.67;;;7.27;;
8584;SDS011;7180;52.742;11.420;2023-01-15T13:17:21;7.80;;;7.30;;
8584;SDS011;7180;52.742;11.420;2023-01-15T13:20:12;7.57;;;7.27;;
8584;SDS011;7180;52.742;11.420;2023-01-15T13:23:07;7.90;;;7.43;;
8584;SDS011;7180;52.742;11.420;2023-01-15T13:37:30;8.00;;;7.50;;
8584;SDS011;7180;52.742;11.420;2023-01-15T13:40:17;7.80;;;7.30;;
8584;SDS011;7180;52.742;11.420;2023-01-15T13:42:45;7.60;;;7.20;;
8584;SDS011;7180;52.742;11.420;2023-01-15T13:47:38;7.60;;;7.30;;
8584;SDS011;7180;52.742;11.420;2023-01-15T13:50:14;7.73;;;7.33;;
8584;SDS011;7180;52.742;11.420;2023-01-15T13:52:42;7.63;;;7.20;;
8584;SDS011;7180;52.742;11.420;2023-01-15T13:57:40;7.77;;;7.27;;
8584;SDS011;7180;52.742;11.420;2023-01-15T14:00:28;7.70;;;7.30;;
8584;SDS011;7180;52.742;11.420;2023-01-15T14:05:59;7.10;;;6.70;;
8584;SDS011;7180;52.742;11.420;2023-01-15T14:08:40;7.80;;;7.30;;
8584;SDS011;7180;52.742;11.420;2023-01-15T14:19:32;8.10;;;7.60;;
8584;SDS011;7180;52.742;11.420;2023-01-15T14:22:17;7.70;;;7.20;;
8584;SDS011;7180;52.742;11.420;2023-01-15T14:25:02;7.33;;;6.93;;
8584;SDS011;7180;52.742;11.420;2023-01-15T14:35:43;7.83;;;7.33;;
8584;SDS011;7180;52.742;11.420;2023-01-15T14:38:17;8.03;;;7.50;;
8584;SDS011;7180;52.742;11.420;2023-01-15T14:40:51;7.73;;;7.33;;
8584;SDS011;7180;52.742;11.420;2023-01-15T14:43:23;8.03;;;7.50;;
8584;SDS011;7180;52.742;11.420;2023-01-15T14:45:50;7.67;;;7.27;;
8584;SDS011;7180;52.742;11.420;2023-01-15T14:51:05;7.70;;;7.30;;
8584;SDS011;7180;52.742;11.420;2023-01-15T14:53:42;7.90;;;7.40;;
8584;SDS011;7180;52.742;11.420;2023-01-15T14:58:54;7.00;;;6.57;;
8584;SDS011;7180;52.742;11.420;2023-01-15T15:01:42;7.80;;;7.30;;
8584;SDS011;7180;52.742;11.420;2023-01-15T15:04:20;8.17;;;7.60;;
8584;SDS011;7180;52.742;11.420;2023-01-15T15:06:47;7.83;;;7.43;;
8584;SDS011;7180;52.742;11.420;2023-01-15T15:09:24;7.97;;;7.47;;
8584;SDS011;7180;52.742;11.420;2023-01-15T15:11:53;8.10;;;7.53;;
8584;SDS011;7180;52.742;11.420;2023-01-15T15:14:40;8.30;;;7.80;;
8584;SDS011;7180;52.742;11.420;2023-01-15T15:17:12;8.40;;;7.90;;
8584;SDS011;7180;52.742;11.420;2023-01-15T15:19:46;8.40;;;7.90;;
8584;SDS011;7180;52.742;11.420;2023-01-15T15:22:15;8.23;;;7.70;;
8584;SDS011;7180;52.742;11.420;2023-01-15T15:24:44;8.57;;;7.53;;
8584;SDS011;7180;52.742;11.420;2023-01-15T15:27:16;8.27;;;7.80;;
8584;SDS011;7180;52.742;11.420;2023-01-15T15:29:46;8.40;;;7.90;;
8584;SDS011;7180;52.742;11.420;2023-01-15T15:32:21;8.30;;;7.70;;
8584;SDS011;7180;52.742;11.420;2023-01-15T15:34:49;8.07;;;7.57;;
8584;SDS011;7180;52.742;11.420;2023-01-15T15:37:22;8.27;;;7.77;;
8584;SDS011;7180;52.742;11.420;2023-01-15T15:40:13;8.30;;;7.80;;
8584;SDS011;7180;52.742;11.420;2023-01-15T15:42:42;8.40;;;7.90;;
8584;SDS011;7180;52.742;11.420;2023-01-15T15:45:51;9.10;;;8.43;;
8584;SDS011;7180;52.742;11.420;2023-01-15T15:48:36;8.90;;;8.30;;
8584;SDS011;7180;52.742;11.420;2023-01-15T15:54:13;8.37;;;7.80;;
8584;SDS011;7180;52.742;11.420;2023-01-15T16:01:54;8.90;;;8.20;;
8584;SDS011;7180;52.742;11.420;2023-01-15T16:04:21;8.83;;;8.00;;
8584;SDS011;7180;52.742;11.420;2023-01-15T16:06:48;8.53;;;7.90;;
8584;SDS011;7180;52.742;11.420;2023-01-15T16:09:13;8.67;;;8.17;;
8584;SDS011;7180;52.742;11.420;2023-01-15T16:11:44;8.63;;;8.00;;
8584;SDS011;7180;52.742;11.420;2023-01-15T16:14:10;8.10;;;7.70;;
8584;SDS011;7180;52.742;11.420;2023-01-15T16:16:39;7.90;;;7.50;;
8584;SDS011;7180;52.742;11.420;2023-01-15T16:19:06;8.53;;;7.90;;
8584;SDS011;7180;52.742;11.420;2023-01-15T16:21:35;8.43;;;7.83;;
8584;SDS011;7180;52.742;11.420;2023-01-15T16:24:04;7.80;;;7.40;;
8584;SDS011;7180;52.742;11.420;2023-01-15T16:26:36;8.47;;;7.97;;
8584;SDS011;7180;52.742;11.420;2023-01-15T16:29:05;8.17;;;7.67;;
8584;SDS011;7180;52.742;11.420;2023-01-15T16:31:39;8.20;;;7.73;;
8584;SDS011;7180;52.742;11.420;2023-01-15T16:34:05;8.60;;;7.90;;
8584;SDS011;7180;52.742;11.420;2023-01-15T16:36:38;8.47;;;7.93;;
8584;SDS011;7180;52.742;11.420;2023-01-15T16:39:06;8.27;;;7.63;;
8584;SDS011;7180;52.742;11.420;2023-01-15T16:41:46;8.23;;;7.70;;
8584;SDS011;7180;52.742;11.420;2023-01-15T16:44:24;8.73;;;8.17;;
8584;SDS011;7180;52.742;11.420;2023-01-15T16:46:55;8.30;;;7.80;;
8584;SDS011;7180;52.742;11.420;2023-01-15T16:49:24;8.43;;;7.87;;
8584;SDS011;7180;52.742;11.420;2023-01-15T16:51:55;7.60;;;7.10;;
8584;SDS011;7180;52.742;11.420;2023-01-15T16:56:57;8.23;;;7.73;;
8584;SDS011;7180;52.742;11.420;2023-01-15T17:01:49;8.80;;;8.10;;
8584;SDS011;7180;52.742;11.420;2023-01-15T17:04:34;8.27;;;7.77;;
8584;SDS011;7180;52.742;11.420;2023-01-15T17:07:15;8.30;;;7.80;;
8584;SDS011;7180;52.742;11.420;2023-01-15T17:09:46;8.50;;;7.80;;
8584;SDS011;7180;52.742;11.420;2023-01-15T17:14:48;7.80;;;7.40;;
8584;SDS011;7180;52.742;11.420;2023-01-15T17:17:22;8.40;;;7.90;;
8584;SDS011;7180;52.742;11.420;2023-01-15T17:19:52;8.27;;;7.50;;
8584;SDS011;7180;52.742;11.420;2023-01-15T17:22:29;7.90;;;7.40;;
8584;SDS011;7180;52.742;11.420;2023-01-15T17:24:57;8.10;;;7.60;;
8584;SDS011;7180;52.742;11.420;2023-01-15T17:27:25;8.50;;;7.80;;
8584;SDS011;7180;52.742;11.420;2023-01-15T17:29:52;8.33;;;7.70;;
8584;SDS011;7180;52.742;11.420;2023-01-15T17:32:33;8.10;;;7.40;;
8584;SDS011;7180;52.742;11.420;2023-01-15T17:35:04;7.97;;;7.57;;
8584;SDS011;7180;52.742;11.420;2023-01-15T17:37:30;8.00;;;7.60;;
8584;SDS011;7180;52.742;11.420;2023-01-15T17:39:56;8.10;;;7.70;;
8584;SDS011;7180;52.742;11.420;2023-01-15T17:42:21;8.40;;;8.00;;